createdAt,value
2018-12-16T00:00:36.740Z,-0.40
2018-12-16T00:03:08.122Z,-0.40
2018-12-16T00:05:38.982Z,-0.40
2018-12-16T00:08:07.628Z,-0.40
2018-12-16T00:10:36.381Z,-0.40
2018-12-16T00:13:05.138Z,-0.40
2018-12-16T00:15:33.879Z,-0.40
2018-12-16T00:18:02.944Z,-0.30
2018-12-16T00:20:31.958Z,-0.40
2018-12-16T00:23:01.050Z,-0.50
2018-12-16T00:25:29.883Z,-0.40
2018-12-16T00:27:58.589Z,-0.40
2018-12-16T00:30:27.292Z,-0.40
2018-12-16T00:32:56.940Z,-0.50
2018-12-16T00:35:25.702Z,-0.50
2018-12-16T00:37:55.127Z,-0.40
2018-12-16T00:40:23.876Z,-0.50
2018-12-16T00:42:52.734Z,-0.50
2018-12-16T00:45:22.710Z,-0.60
2018-12-16T00:47:52.386Z,-0.60
2018-12-16T00:50:21.160Z,-0.70
2018-12-16T00:52:49.853Z,-0.70
2018-12-16T00:55:18.653Z,-0.70
2018-12-16T00:57:47.349Z,-0.70
2018-12-16T01:00:16.301Z,-0.70
2018-12-16T01:02:45.053Z,-0.70
2018-12-16T01:05:13.931Z,-0.60
2018-12-16T01:07:42.670Z,-0.60
2018-12-16T01:10:11.658Z,-0.60
2018-12-16T01:12:41.267Z,-0.50
2018-12-16T01:15:09.996Z,-0.60
2018-12-16T01:17:38.710Z,-0.50
2018-12-16T01:20:07.842Z,-0.40
2018-12-16T01:22:43.199Z,-0.40
2018-12-16T01:25:07.400Z,-0.40
2018-12-16T01:27:36.072Z,-0.40
2018-12-16T01:30:05.187Z,-0.40
2018-12-16T01:32:33.965Z,-0.40
2018-12-16T01:35:02.719Z,-0.50
2018-12-16T01:37:31.481Z,-0.50
2018-12-16T01:40:00.256Z,-0.60
2018-12-16T01:42:28.955Z,-0.50
2018-12-16T01:44:57.719Z,-0.40
2018-12-16T01:47:26.465Z,-0.50
2018-12-16T01:49:55.354Z,-0.40
2018-12-16T01:52:24.095Z,-0.40
2018-12-16T01:54:52.849Z,-0.40
2018-12-16T01:57:22.535Z,-0.50
2018-12-16T01:59:51.240Z,-0.50
2018-12-16T02:02:20.060Z,-0.50
2018-12-16T02:04:48.816Z,-0.40
2018-12-16T02:07:17.585Z,-0.30
2018-12-16T02:09:46.326Z,-0.40
2018-12-16T02:12:15.021Z,-0.40
2018-12-16T02:14:43.717Z,-0.40
2018-12-16T02:17:12.454Z,-0.40
2018-12-16T02:19:41.250Z,-0.40
2018-12-16T02:22:10.018Z,-0.40
2018-12-16T02:24:39.068Z,-0.50
2018-12-16T02:27:07.800Z,-0.50
2018-12-16T02:29:36.511Z,-0.50
2018-12-16T02:32:06.333Z,-0.50
2018-12-16T02:34:35.230Z,-0.40
2018-12-16T02:37:04.281Z,-0.40
2018-12-16T02:39:33.087Z,-0.40
2018-12-16T02:42:01.796Z,-0.40
2018-12-16T02:44:30.657Z,-0.40
2018-12-16T02:46:59.284Z,-0.30
2018-12-16T02:49:28.067Z,-0.30
2018-12-16T02:51:56.802Z,-0.30
2018-12-16T02:54:25.666Z,-0.30
2018-12-16T02:56:54.551Z,-0.40
2018-12-16T02:59:23.271Z,-0.40
2018-12-16T03:01:52.621Z,-0.40
2018-12-16T03:04:21.407Z,-0.30
2018-12-16T03:06:50.097Z,-0.40
2018-12-16T03:09:19.073Z,-0.40
2018-12-16T03:11:47.845Z,-0.40
2018-12-16T03:14:16.821Z,-0.40
2018-12-16T03:16:45.821Z,-0.40
2018-12-16T03:19:14.486Z,-0.50
2018-12-16T03:21:43.415Z,-0.40
2018-12-16T03:24:12.203Z,-0.40
2018-12-16T03:26:40.985Z,-0.40
2018-12-16T03:29:09.719Z,-0.50
2018-12-16T03:31:38.782Z,-0.40
2018-12-16T03:34:07.553Z,-0.30
2018-12-16T03:36:36.290Z,-0.30
2018-12-16T03:39:06.686Z,-0.30
2018-12-16T03:41:36.341Z,-0.30
2018-12-16T03:44:05.261Z,-0.30
2018-12-16T03:46:34.001Z,-0.20
2018-12-16T03:49:02.719Z,-0.20
2018-12-16T03:51:31.393Z,-0.20
2018-12-16T03:54:00.108Z,-0.30
2018-12-16T03:56:28.822Z,-0.30
2018-12-16T03:59:13.729Z,-0.30
2018-12-16T04:01:42.572Z,-0.30
2018-12-16T04:04:11.317Z,-0.30
2018-12-16T04:06:40.050Z,-0.40
2018-12-16T04:09:08.754Z,-0.40
2018-12-16T04:11:37.476Z,-0.30
2018-12-16T04:14:06.199Z,-0.20
2018-12-16T04:16:36.870Z,-0.30
2018-12-16T04:19:07.198Z,-0.30
2018-12-16T04:21:35.894Z,-0.30
2018-12-16T04:24:04.661Z,-0.50
2018-12-16T04:26:33.553Z,-0.40
2018-12-16T04:29:02.362Z,-0.50
2018-12-16T04:31:31.373Z,-0.40
2018-12-16T04:34:00.254Z,-0.40
2018-12-16T04:36:29.232Z,-0.40
2018-12-16T04:38:58.938Z,-0.40
2018-12-16T04:41:27.676Z,-0.30
2018-12-16T04:43:56.434Z,-0.30
2018-12-16T04:46:25.109Z,-0.30
2018-12-16T04:48:54.009Z,-0.40
2018-12-16T04:51:22.994Z,-0.40
2018-12-16T04:53:51.790Z,-0.40
2018-12-16T04:56:20.672Z,-0.50
2018-12-16T04:58:50.457Z,-0.40
2018-12-16T05:01:19.468Z,-0.40
2018-12-16T05:03:48.206Z,-0.30
2018-12-16T05:06:16.955Z,-0.30
2018-12-16T05:08:45.929Z,-0.30
2018-12-16T05:11:14.752Z,-0.30
2018-12-16T05:13:43.463Z,-0.30
2018-12-16T05:16:12.152Z,-0.30
2018-12-16T05:18:40.837Z,-0.30
2018-12-16T05:21:09.529Z,-0.20
2018-12-16T05:23:41.853Z,-0.20
2018-12-16T05:26:09.119Z,-0.10
2018-12-16T05:28:37.890Z,-0.10
2018-12-16T05:31:06.578Z,0.00
2018-12-16T05:33:35.321Z,-0.10
2018-12-16T05:36:04.049Z,-0.10
2018-12-16T05:38:32.701Z,-0.10
2018-12-16T05:41:01.402Z,-0.10
2018-12-16T05:43:30.073Z,0.00
2018-12-16T05:45:58.749Z,0.00
2018-12-16T05:48:27.372Z,0.10
2018-12-16T05:50:56.392Z,0.10
2018-12-16T05:53:26.083Z,0.10
2018-12-16T05:55:54.869Z,0.10
2018-12-16T05:58:23.596Z,0.10
2018-12-16T06:00:53.002Z,0.10
2018-12-16T06:03:21.673Z,0.10
2018-12-16T06:05:50.411Z,0.00
2018-12-16T06:08:19.009Z,0.10
2018-12-16T06:10:47.731Z,0.10
2018-12-16T06:13:16.727Z,0.20
2018-12-16T06:15:45.537Z,0.20
2018-12-16T06:18:15.346Z,0.20
2018-12-16T06:20:44.055Z,0.10
2018-12-16T06:23:12.977Z,0.20
2018-12-16T06:25:41.738Z,0.10
2018-12-16T06:28:10.433Z,0.10
2018-12-16T06:30:39.609Z,0.10
2018-12-16T06:33:08.275Z,0.10
2018-12-16T06:35:36.970Z,0.00
2018-12-16T06:38:05.733Z,0.10
2018-12-16T06:40:34.481Z,0.20
2018-12-16T06:43:03.143Z,0.10
2018-12-16T06:45:31.998Z,0.00
2018-12-16T06:48:00.917Z,0.00
2018-12-16T06:50:29.633Z,-0.10
2018-12-16T06:52:58.336Z,0.00
2018-12-16T06:55:26.988Z,0.00
2018-12-16T06:57:55.677Z,0.00
2018-12-16T07:00:24.471Z,0.00
2018-12-16T07:02:54.126Z,0.00
2018-12-16T07:05:23.668Z,-0.10
2018-12-16T07:07:53.169Z,-0.20
2018-12-16T07:10:21.965Z,-0.20
2018-12-16T07:12:50.723Z,-0.20
2018-12-16T07:15:19.598Z,-0.20
2018-12-16T07:17:48.244Z,-0.10
2018-12-16T07:20:16.999Z,-0.10
2018-12-16T07:22:47.146Z,-0.10
2018-12-16T07:25:16.029Z,-0.10
2018-12-16T07:27:44.707Z,0.00
2018-12-16T07:30:13.949Z,-0.10
2018-12-16T07:32:42.741Z,-0.10
2018-12-16T07:35:11.538Z,-0.10
2018-12-16T07:37:40.292Z,-0.20
2018-12-16T07:40:09.369Z,-0.20
2018-12-16T07:42:38.054Z,-0.10
2018-12-16T07:45:07.340Z,-0.10
2018-12-16T07:47:36.139Z,-0.20
2018-12-16T07:50:06.143Z,-0.10
2018-12-16T07:52:34.911Z,-0.10
2018-12-16T07:55:04.101Z,-0.10
2018-12-16T07:57:32.851Z,0.00
2018-12-16T08:00:02.763Z,-0.10
2018-12-16T08:02:31.487Z,-0.10
2018-12-16T08:05:00.269Z,-0.10
2018-12-16T08:07:28.980Z,-0.10
2018-12-16T08:09:57.729Z,-0.10
2018-12-16T08:12:26.692Z,-0.10
2018-12-16T08:14:55.428Z,-0.10
2018-12-16T08:17:24.145Z,-0.10
2018-12-16T08:19:53.375Z,-0.10
2018-12-16T08:22:22.055Z,-0.10
2018-12-16T08:24:50.698Z,-0.10
2018-12-16T08:27:19.473Z,-0.10
2018-12-16T08:29:48.214Z,-0.10
2018-12-16T08:32:18.252Z,-0.10
2018-12-16T08:34:47.170Z,-0.10
2018-12-16T08:37:15.861Z,-0.10
2018-12-16T08:39:44.505Z,-0.10
2018-12-16T08:42:13.239Z,-0.10
2018-12-16T08:44:42.117Z,0.00
2018-12-16T08:47:10.776Z,0.00
2018-12-16T08:49:39.598Z,0.00
2018-12-16T08:52:08.310Z,-0.10
2018-12-16T08:54:37.282Z,0.00
2018-12-16T08:57:06.024Z,0.20
2018-12-16T08:59:34.765Z,0.10
2018-12-16T09:02:03.734Z,0.00
2018-12-16T09:04:32.500Z,0.10
2018-12-16T09:07:01.165Z,0.20
2018-12-16T09:09:30.104Z,0.20
2018-12-16T09:11:58.865Z,0.30
2018-12-16T09:14:27.619Z,0.40
2018-12-16T09:16:56.306Z,0.30
2018-12-16T09:19:25.313Z,0.30
2018-12-16T09:21:54.076Z,0.30
2018-12-16T09:24:23.618Z,0.40
2018-12-16T09:26:52.345Z,0.50
2018-12-16T09:29:21.074Z,0.50
2018-12-16T09:31:49.837Z,0.60
2018-12-16T09:34:19.433Z,0.40
2018-12-16T09:36:48.150Z,0.30
2018-12-16T09:39:16.872Z,0.30
2018-12-16T09:41:45.679Z,0.20
2018-12-16T09:44:14.429Z,0.30
2018-12-16T09:46:44.167Z,0.40
2018-12-16T09:49:12.881Z,0.50
2018-12-16T09:51:41.621Z,0.60
2018-12-16T09:54:10.426Z,0.60
2018-12-16T09:56:39.192Z,0.60
2018-12-16T09:59:07.915Z,0.70
2018-12-16T10:01:37.903Z,0.60
2018-12-16T10:04:06.660Z,0.50
2018-12-16T10:06:35.412Z,0.50
2018-12-16T10:09:07.967Z,0.40
2018-12-16T10:11:36.715Z,0.50
2018-12-16T10:14:05.437Z,0.60
2018-12-16T10:16:34.248Z,0.70
2018-12-16T10:19:03.867Z,0.70
2018-12-16T10:21:32.620Z,0.60
2018-12-16T10:24:01.245Z,0.50
2018-12-16T10:26:30.756Z,0.40
2018-12-16T10:28:59.545Z,0.40
2018-12-16T10:31:28.377Z,0.40
2018-12-16T10:33:57.113Z,0.50
2018-12-16T10:36:25.805Z,0.60
2018-12-16T10:38:54.508Z,0.80
2018-12-16T10:41:23.805Z,0.90
2018-12-16T10:43:53.485Z,1.00
2018-12-16T10:46:22.268Z,1.00
2018-12-16T10:48:50.997Z,1.00
2018-12-16T10:51:19.685Z,1.00
2018-12-16T10:53:48.453Z,1.00
2018-12-16T10:56:17.113Z,1.10
2018-12-16T10:58:45.845Z,1.10
2018-12-16T11:01:19.861Z,0.90
2018-12-16T11:03:48.624Z,1.00
2018-12-16T11:06:17.419Z,0.90
2018-12-16T11:08:46.538Z,1.00
2018-12-16T11:11:15.279Z,0.80
2018-12-16T11:13:44.076Z,0.80
2018-12-16T11:16:12.843Z,0.80
2018-12-16T11:18:41.549Z,0.80
2018-12-16T11:21:10.310Z,0.70
2018-12-16T11:23:39.175Z,0.80
2018-12-16T11:26:08.437Z,0.90
2018-12-16T11:28:37.038Z,0.80
2018-12-16T11:31:05.808Z,0.70
2018-12-16T11:33:34.504Z,0.80
2018-12-16T11:36:03.184Z,0.80
2018-12-16T11:38:31.931Z,0.90
2018-12-16T11:41:00.689Z,1.00
2018-12-16T11:43:29.339Z,1.00
2018-12-16T11:45:58.152Z,0.90
2018-12-16T11:48:26.824Z,1.00
2018-12-16T11:50:55.573Z,1.00
2018-12-16T11:53:24.307Z,1.10
2018-12-16T11:55:53.913Z,1.20
2018-12-16T11:58:23.821Z,1.10
2018-12-16T12:00:52.466Z,1.20
2018-12-16T12:03:21.450Z,1.20
2018-12-16T12:05:52.342Z,1.10
2018-12-16T12:08:21.039Z,1.20
2018-12-16T12:10:49.771Z,1.20
2018-12-16T12:13:18.586Z,1.30
2018-12-16T12:15:48.257Z,1.20
2018-12-16T12:18:17.049Z,1.30
2018-12-16T12:20:46.125Z,1.20
2018-12-16T12:23:14.879Z,1.10
2018-12-16T12:25:43.456Z,1.10
2018-12-16T12:28:12.674Z,1.10
2018-12-16T12:30:41.469Z,1.10
2018-12-16T12:33:10.202Z,1.20
2018-12-16T12:35:39.013Z,1.20
2018-12-16T12:38:07.782Z,1.30
2018-12-16T12:40:36.486Z,1.30
2018-12-16T12:43:05.287Z,1.40
2018-12-16T12:45:34.020Z,1.50
2018-12-16T12:48:02.750Z,1.50
2018-12-16T12:50:31.538Z,1.70
2018-12-16T12:53:00.406Z,1.60
2018-12-16T12:55:29.127Z,1.50
2018-12-16T12:57:57.905Z,1.60
2018-12-16T13:00:26.651Z,1.60
2018-12-16T13:02:55.393Z,1.50
2018-12-16T13:05:24.812Z,1.50
2018-12-16T13:07:53.585Z,1.40
2018-12-16T13:10:22.359Z,1.50
2018-12-16T13:12:50.958Z,1.50
2018-12-16T13:15:19.719Z,1.50
2018-12-16T13:17:48.959Z,1.50
2018-12-16T13:20:17.645Z,1.30
2018-12-16T13:22:47.401Z,1.40
2018-12-16T13:25:33.595Z,1.30
2018-12-16T13:27:58.153Z,1.40
2018-12-16T13:30:26.929Z,1.50
2018-12-16T13:32:55.570Z,1.60
2018-12-16T13:35:24.709Z,1.60
2018-12-16T13:37:53.697Z,1.50
2018-12-16T13:40:22.382Z,1.70
2018-12-16T13:42:51.241Z,1.60
2018-12-16T13:45:20.013Z,1.50
2018-12-16T13:47:48.771Z,1.60
2018-12-16T13:50:17.477Z,1.70
2018-12-16T13:52:46.315Z,1.70
2018-12-16T13:55:15.033Z,1.60
2018-12-16T13:57:44.514Z,1.70
2018-12-16T14:00:13.434Z,1.70
2018-12-16T14:02:42.126Z,1.60
2018-12-16T14:05:10.867Z,1.70
2018-12-16T14:07:39.585Z,1.70
2018-12-16T14:10:08.346Z,1.70
2018-12-16T14:12:36.987Z,1.60
2018-12-16T14:15:05.785Z,1.60
2018-12-16T14:17:34.429Z,1.50
2018-12-16T14:20:03.235Z,1.50
2018-12-16T14:22:32.286Z,1.60
2018-12-16T14:25:01.024Z,1.60
2018-12-16T14:27:29.723Z,1.60
2018-12-16T14:29:58.508Z,1.60
2018-12-16T14:32:27.258Z,1.60
2018-12-16T14:34:55.993Z,1.60
2018-12-16T14:37:25.738Z,1.70
2018-12-16T14:39:55.377Z,1.60
2018-12-16T14:42:24.295Z,1.70
2018-12-16T14:44:53.086Z,1.60
2018-12-16T14:47:21.830Z,1.50
2018-12-16T14:49:50.518Z,1.50
2018-12-16T14:52:19.497Z,1.50
2018-12-16T14:54:48.278Z,1.60
2018-12-16T14:57:16.989Z,1.60
2018-12-16T14:59:45.711Z,1.50
2018-12-16T15:02:14.479Z,1.60
2018-12-16T15:04:43.158Z,1.60
2018-12-16T15:07:11.925Z,1.60
2018-12-16T15:09:40.659Z,1.70
2018-12-16T15:12:09.347Z,1.70
2018-12-16T15:14:38.095Z,1.70
2018-12-16T15:17:06.981Z,1.80
2018-12-16T15:19:35.741Z,1.80
2018-12-16T15:22:04.478Z,1.70
2018-12-16T15:24:33.103Z,1.70
2018-12-16T15:27:01.917Z,1.70
2018-12-16T15:29:30.618Z,1.70
2018-12-16T15:31:59.337Z,1.80
2018-12-16T15:34:28.044Z,1.90
2018-12-16T15:36:57.115Z,1.80
2018-12-16T15:39:25.945Z,1.70
2018-12-16T15:41:55.649Z,1.80
2018-12-16T15:44:25.534Z,1.80
2018-12-16T15:46:54.277Z,1.90
2018-12-16T15:49:23.101Z,1.90
2018-12-16T15:51:51.924Z,1.90
2018-12-16T15:54:20.703Z,1.90
2018-12-16T15:56:49.445Z,1.80
2018-12-16T15:59:18.244Z,1.80
2018-12-16T16:01:46.862Z,1.90
2018-12-16T16:04:15.514Z,1.90
2018-12-16T16:06:44.329Z,1.90
2018-12-16T16:09:13.081Z,1.90
2018-12-16T16:11:41.757Z,2.00
2018-12-16T16:14:10.606Z,1.90
2018-12-16T16:16:40.817Z,1.90
2018-12-16T16:19:09.580Z,1.80
2018-12-16T16:21:38.333Z,1.80
2018-12-16T16:24:07.056Z,1.70
2018-12-16T16:26:35.846Z,1.70
2018-12-16T16:29:04.630Z,1.80
2018-12-16T16:31:33.357Z,1.80
2018-12-16T16:34:02.227Z,1.90
2018-12-16T16:36:30.929Z,2.00
2018-12-16T16:38:59.626Z,1.90
2018-12-16T16:41:28.272Z,1.90
2018-12-16T16:43:57.114Z,1.90
2018-12-16T16:46:26.959Z,1.80
2018-12-16T16:48:55.757Z,1.70
2018-12-16T16:51:24.481Z,1.80
2018-12-16T16:53:53.202Z,1.80
2018-12-16T16:56:23.090Z,2.00
2018-12-16T16:58:51.925Z,2.00
2018-12-16T17:01:20.639Z,1.90
2018-12-16T17:03:49.424Z,1.90
2018-12-16T17:06:18.185Z,1.80
2018-12-16T17:08:46.922Z,1.60
2018-12-16T17:11:16.016Z,1.60
2018-12-16T17:13:45.241Z,1.50
2018-12-16T17:16:14.115Z,1.40
2018-12-16T17:18:43.035Z,1.40
2018-12-16T17:21:11.858Z,1.40
2018-12-16T17:23:40.578Z,1.40
2018-12-16T17:26:09.345Z,1.40
2018-12-16T17:28:38.411Z,1.30
2018-12-16T17:31:07.125Z,1.30
2018-12-16T17:33:35.869Z,1.20
2018-12-16T17:36:04.715Z,1.40
2018-12-16T17:38:33.479Z,1.30
2018-12-16T17:41:02.299Z,1.20
2018-12-16T17:43:31.129Z,1.20
2018-12-16T17:45:59.881Z,1.20
2018-12-16T17:48:28.585Z,1.20
2018-12-16T17:50:57.393Z,1.10
2018-12-16T17:53:27.062Z,1.10
2018-12-16T17:55:55.689Z,1.00
2018-12-16T17:58:25.143Z,1.00
2018-12-16T18:00:53.957Z,1.00
2018-12-16T18:03:22.765Z,1.00
2018-12-16T18:05:51.591Z,1.00
2018-12-16T18:08:20.226Z,1.10
2018-12-16T18:10:48.993Z,1.10
2018-12-16T18:13:17.747Z,0.90
2018-12-16T18:15:46.469Z,0.70
2018-12-16T18:18:15.268Z,0.70
2018-12-16T18:20:44.026Z,0.80
2018-12-16T18:23:12.665Z,0.90
2018-12-16T18:25:41.416Z,0.90
2018-12-16T18:28:11.199Z,1.00
2018-12-16T18:30:39.912Z,1.00
2018-12-16T18:33:09.209Z,1.00
2018-12-16T18:35:37.953Z,1.10
2018-12-16T18:38:06.722Z,1.20
2018-12-16T18:40:35.464Z,1.20
2018-12-16T18:43:04.273Z,1.10
2018-12-16T18:45:33.050Z,1.00
2018-12-16T18:48:02.618Z,0.90
2018-12-16T18:50:31.359Z,0.90
2018-12-16T18:53:00.269Z,1.00
2018-12-16T18:55:28.973Z,0.90
2018-12-16T18:57:57.756Z,1.00
2018-12-16T19:00:26.574Z,1.00
2018-12-16T19:02:55.290Z,1.10
2018-12-16T19:05:24.341Z,1.00
2018-12-16T19:07:53.023Z,1.00
2018-12-16T19:10:21.719Z,0.90
2018-12-16T19:12:50.475Z,1.00
2018-12-16T19:15:19.805Z,1.10
2018-12-16T19:17:48.562Z,1.10
2018-12-16T19:20:17.345Z,1.00
2018-12-16T19:22:46.195Z,1.00
2018-12-16T19:25:15.112Z,1.00
2018-12-16T19:27:43.898Z,1.00
2018-12-16T19:30:12.642Z,1.00
2018-12-16T19:32:41.378Z,1.10
2018-12-16T19:35:16.711Z,1.20
2018-12-16T19:37:45.793Z,1.20
2018-12-16T19:40:15.469Z,1.10
2018-12-16T19:42:44.165Z,1.20
2018-12-16T19:45:12.981Z,1.20
2018-12-16T19:47:41.667Z,1.20
2018-12-16T19:50:10.570Z,1.10
2018-12-16T19:52:40.168Z,1.10
2018-12-16T19:55:08.903Z,1.20
2018-12-16T19:57:37.675Z,1.30
2018-12-16T20:00:07.194Z,1.20
2018-12-16T20:02:35.886Z,1.20
2018-12-16T20:05:05.092Z,1.20
2018-12-16T20:07:34.251Z,1.10
2018-12-16T20:10:04.013Z,1.10
2018-12-16T20:12:33.685Z,1.10
2018-12-16T20:15:02.513Z,1.00
2018-12-16T20:17:32.170Z,0.90
2018-12-16T20:20:00.952Z,1.00
2018-12-16T20:22:30.127Z,1.00
2018-12-16T20:24:59.025Z,1.10
2018-12-16T20:27:27.745Z,1.10
2018-12-16T20:29:56.543Z,1.10
2018-12-16T20:32:25.325Z,1.10
2018-12-16T20:34:54.067Z,1.10
2018-12-16T20:37:23.934Z,1.10
2018-12-16T20:39:52.652Z,1.10
2018-12-16T20:42:21.346Z,1.10
2018-12-16T20:44:50.145Z,1.10
2018-12-16T20:47:18.894Z,1.20
2018-12-16T20:49:47.674Z,1.20
2018-12-16T20:52:16.511Z,1.20
2018-12-16T20:54:45.145Z,1.10
2018-12-16T20:57:18.841Z,1.20
2018-12-16T20:59:44.649Z,1.30
2018-12-16T21:02:13.394Z,1.30
2018-12-16T21:04:42.082Z,1.40
2018-12-16T21:07:10.831Z,1.50
2018-12-16T21:09:39.525Z,1.50
2018-12-16T21:12:12.586Z,1.50
2018-12-16T21:14:46.596Z,1.50
2018-12-16T21:19:23.558Z,1.60
2018-12-16T21:21:52.384Z,1.50
2018-12-16T21:24:21.090Z,1.50
2018-12-16T21:26:49.989Z,1.50
2018-12-16T21:29:18.746Z,1.50
2018-12-16T21:31:47.449Z,1.50
2018-12-16T21:34:16.262Z,1.50
2018-12-16T21:36:44.972Z,1.60
2018-12-16T21:39:13.734Z,1.70
2018-12-16T21:41:44.353Z,1.60
2018-12-16T21:44:13.149Z,1.60
2018-12-16T21:46:41.904Z,1.70
2018-12-16T21:49:10.753Z,1.70
2018-12-16T21:51:39.417Z,1.50
2018-12-16T21:54:08.274Z,1.60
2018-12-16T21:56:37.122Z,1.60
2018-12-16T21:59:05.895Z,1.60
2018-12-16T22:01:34.956Z,1.60
2018-12-16T22:04:04.488Z,1.60
2018-12-16T22:06:34.159Z,1.50
2018-12-16T22:09:02.981Z,1.50
2018-12-16T22:11:31.780Z,1.50
2018-12-16T22:14:00.527Z,1.50
2018-12-16T22:16:29.310Z,1.50
2018-12-16T22:18:58.021Z,1.50
2018-12-16T22:21:26.781Z,1.60
2018-12-16T22:23:55.500Z,1.70
2018-12-16T22:26:24.189Z,1.70
2018-12-16T22:28:52.901Z,1.60
2018-12-16T22:31:21.707Z,1.60
2018-12-16T22:33:50.618Z,1.70
2018-12-16T22:36:19.340Z,1.60
2018-12-16T22:38:48.033Z,1.50
2018-12-16T22:41:16.815Z,1.40
2018-12-16T22:43:45.846Z,1.40
2018-12-16T22:46:14.798Z,1.30
2018-12-16T22:48:43.621Z,1.40
2018-12-16T22:51:12.335Z,1.40
2018-12-16T22:53:41.290Z,1.40
2018-12-16T22:56:09.949Z,1.40
2018-12-16T22:58:38.868Z,1.30
2018-12-16T23:01:13.013Z,1.30
2018-12-16T23:03:41.802Z,1.30
2018-12-16T23:06:10.491Z,1.30
2018-12-16T23:08:39.194Z,1.40
2018-12-16T23:11:08.196Z,1.40
2018-12-16T23:13:37.044Z,1.50
2018-12-16T23:16:05.834Z,1.50
2018-12-16T23:18:34.517Z,1.60
2018-12-16T23:21:03.689Z,1.70
2018-12-16T23:23:32.462Z,1.60
2018-12-16T23:26:01.182Z,1.60
2018-12-16T23:28:30.049Z,1.60
2018-12-16T23:30:58.779Z,1.50
2018-12-16T23:33:27.502Z,1.50
2018-12-16T23:35:57.176Z,1.50
2018-12-16T23:38:25.917Z,1.60
2018-12-16T23:40:55.838Z,1.60
2018-12-16T23:43:24.621Z,1.60
2018-12-16T23:45:53.405Z,1.60
2018-12-16T23:48:22.035Z,1.60
2018-12-16T23:50:51.405Z,1.60
2018-12-16T23:53:20.185Z,1.60
2018-12-16T23:55:48.909Z,1.60
2018-12-16T23:58:17.561Z,1.60
